SRV160M GMMN-LPPT
Flight info
| Callsign | SRV160M |
|---|---|
| Flight time | 0h 54m |
| Altitude | 36000 |
| Route | LAKAM UR722 AMSEL DCT VATZI |
| Aircraft | A343/H-SDE2E3FGHIJ4J5M1RWXY/LB1D1 |
Departure
| Time | 2026-04-28 13:14 |
|---|---|
| Airport | Mohammed V International Airport (GMMN) |
Arrival
| Time | 2026-04-28 14:09 |
|---|---|
| Airport | Lisbon Humberto Delgado Airport (LPPT) |
| Time | Latitude | Longitude | Altitude | Speed | Heading |
|---|---|---|---|---|---|
| 2026-04-28 12:58 | 33.37094 | -7.58348 | 657 ft | 0 kts | 119° |
| 2026-04-28 13:09 | 33.37083 | -7.58316 | 657 ft | 9 kts | 102° |
| 2026-04-28 13:09 | 33.37128 | -7.58280 | 657 ft | 10 kts | 356° |
| 2026-04-28 13:10 | 33.37213 | -7.58307 | 657 ft | 17 kts | 343° |
| 2026-04-28 13:10 | 33.37343 | -7.58351 | 657 ft | 21 kts | 345° |
| 2026-04-28 13:10 | 33.37490 | -7.58399 | 657 ft | 23 kts | 344° |
| 2026-04-28 13:10 | 33.37650 | -7.58440 | 657 ft | 24 kts | 353° |
| 2026-04-28 13:11 | 33.37810 | -7.58508 | 657 ft | 25 kts | 321° |
| 2026-04-28 13:11 | 33.37902 | -7.58661 | 657 ft | 20 kts | 286° |
| 2026-04-28 13:11 | 33.37902 | -7.58804 | 657 ft | 15 kts | 295° |
| 2026-04-28 13:11 | 33.37999 | -7.58857 | 657 ft | 16 kts | 344° |
| 2026-04-28 13:12 | 33.38111 | -7.58895 | 657 ft | 18 kts | 344° |
| 2026-04-28 13:12 | 33.38245 | -7.58942 | 657 ft | 22 kts | 345° |
| 2026-04-28 13:12 | 33.38403 | -7.58995 | 657 ft | 22 kts | 341° |
| 2026-04-28 13:12 | 33.38446 | -7.59130 | 657 ft | 20 kts | 249° |
| 2026-04-28 13:13 | 33.38405 | -7.59289 | 661 ft | 17 kts | 255° |
| 2026-04-28 13:13 | 33.38365 | -7.59345 | 658 ft | 8 kts | 186° |
| 2026-04-28 13:13 | 33.38310 | -7.59326 | 659 ft | 7 kts | 161° |
| 2026-04-28 13:13 | 33.38105 | -7.59253 | 651 ft | 61 kts | 164° |
| 2026-04-28 13:14 | 33.37508 | -7.59049 | 658 ft | 115 kts | 164° |
| 2026-04-28 13:14 | 33.36551 | -7.58719 | 659 ft | 173 kts | 164° |
| 2026-04-28 13:14 | 33.35311 | -7.58296 | 1243 ft | 183 kts | 168° |
| 2026-04-28 13:14 | 33.34109 | -7.57910 | 1947 ft | 182 kts | 167° |
| 2026-04-28 13:15 | 33.32791 | -7.57608 | 2179 ft | 208 kts | 187° |
| 2026-04-28 13:15 | 33.31407 | -7.58378 | 2355 ft | 237 kts | 229° |
| 2026-04-28 13:15 | 33.30732 | -7.60169 | 2967 ft | 251 kts | 265° |
| 2026-04-28 13:15 | 33.31135 | -7.62173 | 3873 ft | 255 kts | 301° |
| 2026-04-28 13:16 | 33.32459 | -7.63611 | 4788 ft | 263 kts | 329° |
| 2026-04-28 13:16 | 33.34075 | -7.64689 | 5645 ft | 267 kts | 327° |
| 2026-04-28 13:16 | 33.35652 | -7.65883 | 6543 ft | 269 kts | 324° |
| 2026-04-28 13:16 | 33.37171 | -7.67214 | 7378 ft | 272 kts | 320° |
| 2026-04-28 13:17 | 33.38660 | -7.68642 | 8219 ft | 277 kts | 319° |
| 2026-04-28 13:17 | 33.40152 | -7.70149 | 8972 ft | 282 kts | 319° |
| 2026-04-28 13:17 | 33.41647 | -7.71701 | 9790 ft | 286 kts | 318° |
| 2026-04-28 13:17 | 33.43163 | -7.73298 | 10350 ft | 299 kts | 318° |
| 2026-04-28 13:18 | 33.44773 | -7.75007 | 10643 ft | 319 kts | 317° |
| 2026-04-28 13:18 | 33.46475 | -7.76824 | 10927 ft | 337 kts | 317° |
| 2026-04-28 13:18 | 33.48270 | -7.78745 | 11181 ft | 355 kts | 317° |
| 2026-04-28 13:18 | 33.50147 | -7.80754 | 11607 ft | 367 kts | 317° |
| 2026-04-28 13:19 | 33.52045 | -7.82787 | 12200 ft | 373 kts | 317° |
| 2026-04-28 13:19 | 33.54069 | -7.84767 | 12836 ft | 379 kts | 323° |
| 2026-04-28 13:19 | 33.56354 | -7.86398 | 13482 ft | 385 kts | 333° |
| 2026-04-28 13:19 | 33.58879 | -7.87524 | 14106 ft | 391 kts | 344° |
| 2026-04-28 13:20 | 33.61580 | -7.88090 | 14681 ft | 397 kts | 354° |
| 2026-04-28 13:20 | 33.64356 | -7.88042 | 15309 ft | 402 kts | 6° |
| 2026-04-28 13:20 | 33.67129 | -7.87468 | 15972 ft | 405 kts | 11° |
| 2026-04-28 13:20 | 33.69907 | -7.86739 | 16524 ft | 411 kts | 12° |
| 2026-04-28 13:21 | 33.72707 | -7.85988 | 17228 ft | 413 kts | 11° |
| 2026-04-28 13:21 | 33.75520 | -7.85238 | 17832 ft | 417 kts | 11° |
| 2026-04-28 13:21 | 33.78335 | -7.84493 | 18428 ft | 420 kts | 11° |
| 2026-04-28 13:21 | 33.81206 | -7.83734 | 18928 ft | 425 kts | 11° |
| 2026-04-28 13:22 | 33.84114 | -7.82969 | 19440 ft | 429 kts | 11° |
| 2026-04-28 13:22 | 33.87042 | -7.82199 | 19964 ft | 433 kts | 11° |
| 2026-04-28 13:22 | 33.90000 | -7.81421 | 20458 ft | 437 kts | 11° |
| 2026-04-28 13:22 | 33.92973 | -7.80638 | 20991 ft | 440 kts | 11° |
| 2026-04-28 13:23 | 33.95980 | -7.79846 | 21469 ft | 444 kts | 12° |
| 2026-04-28 13:23 | 33.99005 | -7.79049 | 22017 ft | 446 kts | 11° |
| 2026-04-28 13:23 | 34.02054 | -7.78245 | 22504 ft | 450 kts | 12° |
| 2026-04-28 13:23 | 34.05129 | -7.77433 | 23003 ft | 453 kts | 12° |
| 2026-04-28 13:24 | 34.08183 | -7.76626 | 23456 ft | 457 kts | 12° |
| 2026-04-28 13:24 | 34.11300 | -7.75802 | 23865 ft | 460 kts | 12° |
| 2026-04-28 13:24 | 34.14442 | -7.74971 | 24259 ft | 463 kts | 12° |
| 2026-04-28 13:24 | 34.17610 | -7.74251 | 24659 ft | 465 kts | 6° |
| 2026-04-28 13:25 | 34.20840 | -7.74015 | 25046 ft | 466 kts | 359° |
| 2026-04-28 13:25 | 34.24095 | -7.74094 | 25439 ft | 468 kts | 356° |
| 2026-04-28 13:25 | 34.27358 | -7.74291 | 25768 ft | 472 kts | 355° |
| 2026-04-28 13:25 | 34.30645 | -7.74546 | 26155 ft | 474 kts | 355° |
| 2026-04-28 13:26 | 34.33937 | -7.74815 | 26532 ft | 476 kts | 355° |
| 2026-04-28 13:26 | 34.37253 | -7.75080 | 26886 ft | 478 kts | 355° |
| 2026-04-28 13:26 | 34.40588 | -7.75336 | 27249 ft | 480 kts | 355° |
| 2026-04-28 13:26 | 34.43888 | -7.75578 | 27589 ft | 483 kts | 355° |
| 2026-04-28 13:27 | 34.47250 | -7.75817 | 27933 ft | 485 kts | 355° |
| 2026-04-28 13:27 | 34.50625 | -7.76052 | 28261 ft | 487 kts | 355° |
| 2026-04-28 13:27 | 34.54023 | -7.76288 | 28538 ft | 490 kts | 355° |
| 2026-04-28 13:27 | 34.57446 | -7.76525 | 28856 ft | 493 kts | 355° |
| 2026-04-28 13:28 | 34.60876 | -7.76763 | 29170 ft | 495 kts | 355° |
| 2026-04-28 13:28 | 34.64321 | -7.77002 | 29466 ft | 497 kts | 355° |
| 2026-04-28 13:28 | 34.67786 | -7.77244 | 29770 ft | 498 kts | 355° |
| 2026-04-28 13:28 | 34.71244 | -7.77486 | 30170 ft | 497 kts | 355° |
| 2026-04-28 13:29 | 34.74696 | -7.77727 | 30540 ft | 497 kts | 355° |
| 2026-04-28 13:29 | 34.78152 | -7.77989 | 30829 ft | 497 kts | 355° |
| 2026-04-28 13:29 | 34.81608 | -7.78275 | 31155 ft | 497 kts | 354° |
| 2026-04-28 13:29 | 34.85010 | -7.78567 | 31495 ft | 496 kts | 354° |
| 2026-04-28 13:30 | 34.88452 | -7.78864 | 31832 ft | 495 kts | 354° |
| 2026-04-28 13:30 | 34.91893 | -7.79160 | 32167 ft | 495 kts | 354° |
| 2026-04-28 13:30 | 34.95326 | -7.79452 | 32496 ft | 494 kts | 355° |
| 2026-04-28 13:30 | 34.98756 | -7.79742 | 32820 ft | 493 kts | 355° |
| 2026-04-28 13:31 | 35.05625 | -7.80319 | 33390 ft | 494 kts | 355° |
| 2026-04-28 13:31 | 35.09049 | -7.80606 | 33691 ft | 493 kts | 355° |
| 2026-04-28 13:31 | 35.12472 | -7.80893 | 33976 ft | 493 kts | 355° |
| 2026-04-28 13:32 | 35.15892 | -7.81180 | 34243 ft | 492 kts | 355° |
| 2026-04-28 13:32 | 35.19261 | -7.81463 | 34519 ft | 491 kts | 355° |
| 2026-04-28 13:32 | 35.22672 | -7.81751 | 34787 ft | 490 kts | 355° |
| 2026-04-28 13:32 | 35.26067 | -7.82037 | 35044 ft | 489 kts | 355° |
| 2026-04-28 13:33 | 35.29469 | -7.82324 | 35227 ft | 490 kts | 355° |
| 2026-04-28 13:33 | 35.32870 | -7.82611 | 35463 ft | 490 kts | 355° |
| 2026-04-28 13:33 | 35.36273 | -7.82899 | 35730 ft | 489 kts | 355° |
| 2026-04-28 13:33 | 35.39675 | -7.83187 | 35869 ft | 491 kts | 355° |
| 2026-04-28 13:34 | 35.46455 | -7.83777 | 35882 ft | 489 kts | 354° |
| 2026-04-28 13:34 | 35.52098 | -7.84288 | 35888 ft | 489 kts | 354° |
| 2026-04-28 13:35 | 35.58906 | -7.84907 | 35876 ft | 490 kts | 354° |
| 2026-04-28 13:35 | 35.65716 | -7.85524 | 35870 ft | 491 kts | 354° |
| 2026-04-28 13:36 | 35.72527 | -7.86140 | 35864 ft | 490 kts | 354° |
| 2026-04-28 13:36 | 35.79337 | -7.86757 | 35876 ft | 490 kts | 354° |
| 2026-04-28 13:37 | 35.86103 | -7.87371 | 35870 ft | 490 kts | 354° |
| 2026-04-28 13:37 | 35.92913 | -7.87993 | 35868 ft | 490 kts | 354° |
| 2026-04-28 13:38 | 35.96281 | -7.88677 | 35863 ft | 488 kts | 343° |
| 2026-04-28 13:38 | 35.99526 | -7.89909 | 35882 ft | 486 kts | 338° |
| 2026-04-28 13:38 | 36.05870 | -7.92848 | 35859 ft | 487 kts | 337° |
| 2026-04-28 13:39 | 36.12184 | -7.95922 | 35862 ft | 487 kts | 336° |
| 2026-04-28 13:39 | 36.18444 | -7.99027 | 35861 ft | 487 kts | 336° |
| 2026-04-28 13:40 | 36.24742 | -8.02172 | 35870 ft | 488 kts | 336° |
| 2026-04-28 13:40 | 36.31036 | -8.05327 | 35868 ft | 488 kts | 336° |
| 2026-04-28 13:41 | 36.37348 | -8.08497 | 35864 ft | 489 kts | 336° |
| 2026-04-28 13:41 | 36.43660 | -8.11673 | 35871 ft | 489 kts | 336° |
| 2026-04-28 13:42 | 36.49926 | -8.14832 | 35868 ft | 489 kts | 336° |
| 2026-04-28 13:42 | 36.56233 | -8.18017 | 35867 ft | 489 kts | 336° |
| 2026-04-28 13:43 | 36.62534 | -8.21204 | 35878 ft | 489 kts | 335° |
| 2026-04-28 13:43 | 36.68837 | -8.24399 | 35883 ft | 489 kts | 335° |
| 2026-04-28 13:44 | 36.75140 | -8.27598 | 35883 ft | 488 kts | 335° |
| 2026-04-28 13:44 | 36.81395 | -8.30780 | 35884 ft | 488 kts | 335° |
| 2026-04-28 13:45 | 36.87676 | -8.33979 | 35253 ft | 486 kts | 335° |
| 2026-04-28 13:45 | 36.90828 | -8.35588 | 34483 ft | 491 kts | 335° |
| 2026-04-28 13:45 | 36.94009 | -8.37213 | 33695 ft | 496 kts | 335° |
| 2026-04-28 13:46 | 36.97216 | -8.38853 | 32858 ft | 499 kts | 335° |
| 2026-04-28 13:46 | 37.00435 | -8.40499 | 32127 ft | 500 kts | 335° |
| 2026-04-28 13:46 | 37.03653 | -8.42146 | 31373 ft | 500 kts | 335° |
| 2026-04-28 13:46 | 37.06878 | -8.43799 | 30612 ft | 501 kts | 335° |
| 2026-04-28 13:47 | 37.10100 | -8.45452 | 29874 ft | 502 kts | 335° |
| 2026-04-28 13:47 | 37.13340 | -8.47115 | 29004 ft | 502 kts | 335° |
| 2026-04-28 13:47 | 37.16569 | -8.48774 | 28224 ft | 501 kts | 335° |
| 2026-04-28 13:47 | 37.19774 | -8.50421 | 27365 ft | 493 kts | 335° |
| 2026-04-28 13:48 | 37.22913 | -8.52036 | 25988 ft | 483 kts | 335° |
| 2026-04-28 13:48 | 37.25933 | -8.53591 | 25245 ft | 462 kts | 336° |
| 2026-04-28 13:48 | 37.28834 | -8.55085 | 24776 ft | 445 kts | 336° |
| 2026-04-28 13:48 | 37.31710 | -8.56571 | 24229 ft | 445 kts | 336° |
| 2026-04-28 13:49 | 37.34568 | -8.58050 | 23682 ft | 444 kts | 336° |
| 2026-04-28 13:49 | 37.37425 | -8.59529 | 23072 ft | 443 kts | 336° |
| 2026-04-28 13:49 | 37.40269 | -8.61001 | 22511 ft | 440 kts | 336° |
| 2026-04-28 13:49 | 37.43097 | -8.62466 | 21950 ft | 438 kts | 336° |
| 2026-04-28 13:50 | 37.45905 | -8.63921 | 21403 ft | 435 kts | 336° |
| 2026-04-28 13:50 | 37.48701 | -8.65372 | 20864 ft | 432 kts | 336° |
| 2026-04-28 13:50 | 37.51473 | -8.66810 | 20310 ft | 430 kts | 335° |
| 2026-04-28 13:50 | 37.54231 | -8.68244 | 19768 ft | 428 kts | 335° |
| 2026-04-28 13:51 | 37.56937 | -8.69651 | 19232 ft | 426 kts | 335° |
| 2026-04-28 13:51 | 37.59671 | -8.71074 | 18695 ft | 424 kts | 335° |
| 2026-04-28 13:51 | 37.62395 | -8.72493 | 18153 ft | 422 kts | 335° |
| 2026-04-28 13:51 | 37.65101 | -8.73904 | 17552 ft | 419 kts | 336° |
| 2026-04-28 13:52 | 37.67788 | -8.75305 | 17015 ft | 416 kts | 336° |
| 2026-04-28 13:52 | 37.70448 | -8.76693 | 16475 ft | 412 kts | 336° |
| 2026-04-28 13:52 | 37.73090 | -8.78074 | 15973 ft | 409 kts | 336° |
| 2026-04-28 13:52 | 37.75714 | -8.79445 | 15450 ft | 405 kts | 336° |
| 2026-04-28 13:53 | 37.78308 | -8.80803 | 14923 ft | 403 kts | 336° |
| 2026-04-28 13:53 | 37.80891 | -8.82156 | 14400 ft | 400 kts | 336° |
| 2026-04-28 13:53 | 37.83451 | -8.83498 | 13893 ft | 397 kts | 336° |
| 2026-04-28 13:53 | 37.85965 | -8.84816 | 13344 ft | 394 kts | 336° |
| 2026-04-28 13:54 | 37.88522 | -8.86159 | 12815 ft | 391 kts | 336° |
| 2026-04-28 13:54 | 37.90989 | -8.87454 | 12297 ft | 387 kts | 336° |
| 2026-04-28 13:54 | 37.93470 | -8.88759 | 11800 ft | 384 kts | 336° |
| 2026-04-28 13:54 | 37.95912 | -8.90043 | 11544 ft | 374 kts | 336° |
| 2026-04-28 13:55 | 37.98268 | -8.91282 | 11432 ft | 360 kts | 336° |
| 2026-04-28 13:55 | 38.00543 | -8.92480 | 11312 ft | 348 kts | 336° |
| 2026-04-28 13:55 | 38.02742 | -8.93639 | 11175 ft | 337 kts | 336° |
| 2026-04-28 13:55 | 38.04875 | -8.94764 | 11041 ft | 327 kts | 336° |
| 2026-04-28 13:56 | 38.06952 | -8.95860 | 10889 ft | 318 kts | 336° |
| 2026-04-28 13:56 | 38.08968 | -8.96925 | 10777 ft | 310 kts | 336° |
| 2026-04-28 13:56 | 38.10942 | -8.97968 | 10615 ft | 303 kts | 336° |
| 2026-04-28 13:56 | 38.12858 | -8.98982 | 10362 ft | 301 kts | 336° |
| 2026-04-28 13:57 | 38.14783 | -9.00002 | 10068 ft | 300 kts | 336° |
| 2026-04-28 13:57 | 38.16708 | -9.01022 | 9791 ft | 298 kts | 337° |
| 2026-04-28 13:57 | 38.18610 | -9.02029 | 9504 ft | 295 kts | 337° |
| 2026-04-28 13:57 | 38.20508 | -9.03035 | 9207 ft | 293 kts | 337° |
| 2026-04-28 13:58 | 38.22388 | -9.04032 | 8893 ft | 292 kts | 337° |
| 2026-04-28 13:58 | 38.24261 | -9.05025 | 8562 ft | 291 kts | 337° |
| 2026-04-28 13:58 | 38.26128 | -9.06017 | 8275 ft | 289 kts | 337° |
| 2026-04-28 13:58 | 38.27975 | -9.06998 | 7988 ft | 287 kts | 337° |
| 2026-04-28 13:59 | 38.29806 | -9.07971 | 7658 ft | 283 kts | 338° |
| 2026-04-28 13:59 | 38.31610 | -9.08930 | 7075 ft | 279 kts | 338° |
| 2026-04-28 13:59 | 38.33378 | -9.09870 | 6650 ft | 270 kts | 338° |
| 2026-04-28 13:59 | 38.35079 | -9.10776 | 6334 ft | 268 kts | 338° |
| 2026-04-28 14:00 | 38.36819 | -9.11702 | 6025 ft | 267 kts | 338° |
| 2026-04-28 14:00 | 38.38519 | -9.12608 | 5905 ft | 270 kts | 338° |
| 2026-04-28 14:00 | 38.40261 | -9.13536 | 5896 ft | 271 kts | 338° |
| 2026-04-28 14:00 | 38.42000 | -9.14464 | 5895 ft | 270 kts | 338° |
| 2026-04-28 14:01 | 38.43738 | -9.15391 | 5900 ft | 271 kts | 338° |
| 2026-04-28 14:01 | 38.45473 | -9.16318 | 5893 ft | 267 kts | 338° |
| 2026-04-28 14:01 | 38.47147 | -9.17212 | 5899 ft | 254 kts | 338° |
| 2026-04-28 14:01 | 38.48734 | -9.18061 | 5899 ft | 241 kts | 338° |
| 2026-04-28 14:02 | 38.50244 | -9.18869 | 5877 ft | 230 kts | 338° |
| 2026-04-28 14:02 | 38.51695 | -9.19645 | 5795 ft | 222 kts | 338° |
| 2026-04-28 14:02 | 38.53073 | -9.20382 | 5678 ft | 213 kts | 337° |
| 2026-04-28 14:02 | 38.54390 | -9.21087 | 5626 ft | 197 kts | 337° |
| 2026-04-28 14:03 | 38.55603 | -9.21737 | 5586 ft | 182 kts | 337° |
| 2026-04-28 14:03 | 38.56757 | -9.22354 | 5372 ft | 178 kts | 337° |
| 2026-04-28 14:03 | 38.57882 | -9.22957 | 5196 ft | 172 kts | 337° |
| 2026-04-28 14:03 | 38.59006 | -9.23343 | 4958 ft | 163 kts | 0° |
| 2026-04-28 14:04 | 38.60076 | -9.23098 | 4720 ft | 152 kts | 15° |
| 2026-04-28 14:04 | 38.61062 | -9.22654 | 4381 ft | 149 kts | 19° |
| 2026-04-28 14:04 | 38.62024 | -9.22171 | 4018 ft | 148 kts | 20° |
| 2026-04-28 14:04 | 38.62987 | -9.21663 | 3647 ft | 150 kts | 22° |
| 2026-04-28 14:05 | 38.63927 | -9.21163 | 3359 ft | 146 kts | 21° |
| 2026-04-28 14:05 | 38.64864 | -9.20681 | 3034 ft | 144 kts | 21° |
| 2026-04-28 14:05 | 38.65790 | -9.20202 | 2694 ft | 143 kts | 23° |
| 2026-04-28 14:05 | 38.66696 | -9.19708 | 2437 ft | 141 kts | 24° |
| 2026-04-28 14:06 | 38.67604 | -9.19212 | 2269 ft | 143 kts | 23° |
| 2026-04-28 14:06 | 38.68531 | -9.18723 | 2078 ft | 145 kts | 24° |
| 2026-04-28 14:06 | 38.69465 | -9.18224 | 1883 ft | 146 kts | 24° |
| 2026-04-28 14:06 | 38.70403 | -9.17723 | 1693 ft | 146 kts | 24° |
| 2026-04-28 14:07 | 38.71344 | -9.17221 | 1505 ft | 147 kts | 23° |
| 2026-04-28 14:07 | 38.72283 | -9.16720 | 1307 ft | 145 kts | 23° |
| 2026-04-28 14:07 | 38.73206 | -9.16200 | 1112 ft | 145 kts | 23° |
| 2026-04-28 14:07 | 38.74144 | -9.15708 | 936 ft | 146 kts | 22° |
| 2026-04-28 14:08 | 38.75083 | -9.15214 | 729 ft | 145 kts | 22° |
| 2026-04-28 14:08 | 38.76004 | -9.14724 | 524 ft | 142 kts | 22° |
| 2026-04-28 14:08 | 38.76911 | -9.14246 | 368 ft | 139 kts | 24° |
| 2026-04-28 14:08 | 38.77681 | -9.13834 | 374 ft | 95 kts | 22° |
| 2026-04-28 14:09 | 38.78106 | -9.13607 | 372 ft | 36 kts | 22° |
| 2026-04-28 14:09 | 38.78294 | -9.13457 | 373 ft | 32 kts | 43° |
| 2026-04-28 14:09 | 38.78374 | -9.13316 | 371 ft | 16 kts | 89° |
| 2026-04-28 14:09 | 38.78308 | -9.13273 | 367 ft | 12 kts | 195° |
| 2026-04-28 14:10 | 38.78216 | -9.13318 | 368 ft | 16 kts | 201° |
| 2026-04-28 14:10 | 38.78103 | -9.13378 | 368 ft | 15 kts | 202° |
| 2026-04-28 14:10 | 38.77993 | -9.13410 | 361 ft | 19 kts | 172° |
| 2026-04-28 14:10 | 38.77846 | -9.13368 | 355 ft | 22 kts | 169° |
| 2026-04-28 14:11 | 38.77739 | -9.13333 | 351 ft | 16 kts | 147° |
| 2026-04-28 14:11 | 38.77687 | -9.13249 | 351 ft | 8 kts | 122° |
| 2026-04-28 14:11 | 38.77675 | -9.13223 | 345 ft | 4 kts | 121° |
| 2026-04-28 14:11 | 38.77671 | -9.13215 | 343 ft | 0 kts | 120° |